Ocontofalls, Wisconsin
Current Conditions -  °F | °C
As of 10:15 AM on Wednesday 28 Jan 2015 (Local Time) from KOCQ Reporting Station
Overcast Overcast  
Wind Chill: -3°   Ceiling: 8000
Heat Index: -3°   Visibility: 10mi
Dew Point: -7°   Wind: 0mph
Humidity: 75%   Direction: NA
Pressure: 30.21"   Gusts: NA
Location:  44.8816°N, 88.1735°W
Report Text: KOCQ 281615Z AUTO 00000KT 10SM BKN080 OVC120 M03/M07 A3021 RMK AO1 T10271066
Loading
Personal Weather Stations






























Interactive Weather Map New forecast layout! Learn more

10-Day Weather Forecast

Advertisements
Track Severe Weather on mobile